createdAt,value
2018-05-10T00:00:15.523Z,991.07
2018-05-10T00:01:15.518Z,991.09
2018-05-10T00:02:15.513Z,991.12
2018-05-10T00:03:15.507Z,991.04
2018-05-10T00:04:15.502Z,991.05
2018-05-10T00:05:15.498Z,991.05
2018-05-10T00:06:15.493Z,991.08
2018-05-10T00:07:15.493Z,991.08
2018-05-10T00:08:15.487Z,991.07
2018-05-10T00:09:15.478Z,991.00
2018-05-10T00:10:15.474Z,991.09
2018-05-10T00:11:15.468Z,991.02
2018-05-10T00:12:15.463Z,991.03
2018-05-10T00:13:15.458Z,991.08
2018-05-10T00:14:15.454Z,991.04
2018-05-10T00:15:15.450Z,991.09
2018-05-10T00:16:15.443Z,991.06
2018-05-10T00:17:15.438Z,991.10
2018-05-10T00:18:15.433Z,991.09
2018-05-10T00:19:15.428Z,991.10
2018-05-10T00:20:15.423Z,991.10
2018-05-10T00:21:15.420Z,991.08
2018-05-10T00:22:15.414Z,991.09
2018-05-10T00:23:15.408Z,991.08
2018-05-10T00:24:15.497Z,991.03
2018-05-10T00:25:15.399Z,991.05
2018-05-10T00:26:15.394Z,991.05
2018-05-10T00:27:15.391Z,991.04
2018-05-10T00:28:15.383Z,991.02
2018-05-10T00:29:15.379Z,991.02
2018-05-10T00:30:15.373Z,991.04
2018-05-10T00:31:15.368Z,991.04
2018-05-10T00:32:15.363Z,991.03
2018-05-10T00:33:15.358Z,991.01
2018-05-10T00:34:15.355Z,991.04
2018-05-10T00:35:15.347Z,991.07
2018-05-10T00:36:15.342Z,991.04
2018-05-10T00:37:15.342Z,991.03
2018-05-10T00:38:15.334Z,991.04
2018-05-10T00:39:15.327Z,991.04
2018-05-10T00:40:15.322Z,991.05
2018-05-10T00:41:15.317Z,991.08
2018-05-10T00:42:15.313Z,991.06
2018-05-10T00:43:15.306Z,991.08
2018-05-10T00:44:15.301Z,991.06
2018-05-10T00:45:15.295Z,991.11
2018-05-10T00:46:15.290Z,991.08
2018-05-10T00:47:15.284Z,991.11
2018-05-10T00:48:15.279Z,991.09
2018-05-10T00:49:15.276Z,991.06
2018-05-10T00:50:15.269Z,991.06
2018-05-10T00:51:15.263Z,991.05
2018-05-10T00:52:15.258Z,991.09
2018-05-10T00:53:15.252Z,991.11
2018-05-10T00:54:15.247Z,991.09
2018-05-10T00:55:15.241Z,991.12
2018-05-10T00:56:15.236Z,991.15
2018-05-10T00:57:15.231Z,991.18
2018-05-10T00:58:15.226Z,991.15
2018-05-10T00:59:15.219Z,991.15
2018-05-10T01:00:15.213Z,991.17
2018-05-10T01:01:15.208Z,991.16
2018-05-10T01:02:15.203Z,991.17
2018-05-10T01:03:15.197Z,991.15
2018-05-10T01:04:15.195Z,991.15
2018-05-10T01:05:15.186Z,991.13
2018-05-10T01:06:15.185Z,991.16
2018-05-10T01:07:15.174Z,991.19
2018-05-10T01:08:15.169Z,991.17
2018-05-10T01:09:15.165Z,991.16
2018-05-10T01:10:15.159Z,991.16
2018-05-10T01:11:15.153Z,991.10
2018-05-10T01:12:15.149Z,991.16
2018-05-10T01:13:15.141Z,991.19
2018-05-10T01:14:15.136Z,991.18
2018-05-10T01:15:15.130Z,991.23
2018-05-10T01:16:15.124Z,991.20
2018-05-10T01:17:15.118Z,991.23
2018-05-10T01:18:15.119Z,991.27
2018-05-10T01:19:15.107Z,991.25
2018-05-10T01:20:15.101Z,991.29
2018-05-10T01:21:15.096Z,991.30
2018-05-10T01:22:15.091Z,991.29
2018-05-10T01:23:15.084Z,991.31
2018-05-10T01:24:15.078Z,991.34
2018-05-10T01:25:15.073Z,991.33
2018-05-10T01:26:15.067Z,991.39
2018-05-10T01:27:15.061Z,991.37
2018-05-10T01:28:15.065Z,991.39
2018-05-10T01:29:15.050Z,991.40
2018-05-10T01:30:15.045Z,991.43
2018-05-10T01:31:15.041Z,991.43
2018-05-10T01:32:15.033Z,991.44
2018-05-10T01:33:15.029Z,991.47
2018-05-10T01:34:15.022Z,991.48
2018-05-10T01:35:15.015Z,991.48
2018-05-10T01:36:15.010Z,991.47
2018-05-10T01:37:15.004Z,991.42
2018-05-10T01:38:14.998Z,991.40
2018-05-10T01:39:14.992Z,991.39
2018-05-10T01:40:14.986Z,991.38
2018-05-10T01:41:14.980Z,991.40
2018-05-10T01:42:14.975Z,991.37
2018-05-10T01:43:14.968Z,991.42
2018-05-10T01:44:14.962Z,991.46
2018-05-10T01:45:14.956Z,991.46
2018-05-10T01:46:14.952Z,991.44
2018-05-10T01:47:14.944Z,991.45
2018-05-10T01:48:14.937Z,991.48
2018-05-10T01:49:14.931Z,991.50
2018-05-10T01:50:14.926Z,991.51
2018-05-10T01:51:14.918Z,991.51
2018-05-10T01:52:14.912Z,991.54
2018-05-10T01:53:14.906Z,991.59
2018-05-10T01:54:14.902Z,991.56
2018-05-10T01:55:14.893Z,991.52
2018-05-10T01:56:14.887Z,991.55
2018-05-10T01:57:14.880Z,991.56
2018-05-10T01:58:14.874Z,991.58
2018-05-10T01:59:14.867Z,991.61
2018-05-10T02:00:14.860Z,991.51
2018-05-10T02:01:14.854Z,991.58
2018-05-10T02:02:14.848Z,991.63
2018-05-10T02:03:14.841Z,991.69
2018-05-10T02:04:14.834Z,991.65
2018-05-10T02:05:14.827Z,991.68
2018-05-10T02:06:14.821Z,991.70
2018-05-10T02:07:14.814Z,991.68
2018-05-10T02:08:14.807Z,991.77
2018-05-10T02:09:14.801Z,991.73
2018-05-10T02:10:14.795Z,991.71
2018-05-10T02:11:14.787Z,991.76
2018-05-10T02:12:14.781Z,991.73
2018-05-10T02:13:14.775Z,991.75
2018-05-10T02:14:14.770Z,991.73
2018-05-10T02:15:14.766Z,991.71
2018-05-10T02:16:14.754Z,991.72
2018-05-10T02:17:14.748Z,991.77
2018-05-10T02:18:14.741Z,991.78
2018-05-10T02:19:14.738Z,991.79
2018-05-10T02:20:14.728Z,991.78
2018-05-10T02:21:14.722Z,991.82
2018-05-10T02:22:14.716Z,991.78
2018-05-10T02:23:14.709Z,991.84
2018-05-10T02:24:14.703Z,991.78
2018-05-10T02:25:14.696Z,991.82
2018-05-10T02:26:14.690Z,991.73
2018-05-10T02:27:14.683Z,991.85
2018-05-10T02:28:14.675Z,991.87
2018-05-10T02:29:14.669Z,991.87
2018-05-10T02:30:14.664Z,991.84
2018-05-10T02:31:14.806Z,991.85
2018-05-10T02:32:14.650Z,991.84
2018-05-10T02:33:14.643Z,991.85
2018-05-10T02:34:14.644Z,991.81
2018-05-10T02:35:14.633Z,991.81
2018-05-10T02:36:14.622Z,991.81
2018-05-10T02:37:14.616Z,991.80
2018-05-10T02:38:14.610Z,991.76
2018-05-10T02:39:14.602Z,991.70
2018-05-10T02:40:14.595Z,991.65
2018-05-10T02:41:14.589Z,991.65
2018-05-10T02:42:14.581Z,991.68
2018-05-10T02:43:14.575Z,991.65
2018-05-10T02:44:14.568Z,991.67
2018-05-10T02:45:14.561Z,991.67
2018-05-10T02:46:14.561Z,991.66
2018-05-10T02:47:14.547Z,991.67
2018-05-10T02:48:14.542Z,991.67
2018-05-10T02:49:14.535Z,991.67
2018-05-10T02:50:14.529Z,991.66
2018-05-10T02:51:14.619Z,991.63
2018-05-10T02:52:14.514Z,991.58
2018-05-10T02:53:14.506Z,991.65
2018-05-10T02:54:14.500Z,991.63
2018-05-10T02:55:14.492Z,991.62
2018-05-10T02:56:14.486Z,991.64
2018-05-10T02:57:14.487Z,991.60
2018-05-10T02:58:14.472Z,991.58
2018-05-10T02:59:14.464Z,991.60
2018-05-10T03:00:14.457Z,991.68
2018-05-10T03:01:14.451Z,991.74
2018-05-10T03:02:14.445Z,991.70
2018-05-10T03:03:14.437Z,991.78
2018-05-10T03:04:14.431Z,991.76
2018-05-10T03:05:14.423Z,991.82
2018-05-10T03:06:14.417Z,991.80
2018-05-10T03:07:14.410Z,991.82
2018-05-10T03:08:14.405Z,991.86
2018-05-10T03:09:14.398Z,991.86
2018-05-10T03:10:14.389Z,991.88
2018-05-10T03:11:14.381Z,991.88
2018-05-10T03:12:14.376Z,991.91
2018-05-10T03:13:14.369Z,991.88
2018-05-10T03:14:14.363Z,991.92
2018-05-10T03:15:14.354Z,991.89
2018-05-10T03:16:14.348Z,991.88
2018-05-10T03:17:14.342Z,991.94
2018-05-10T03:18:14.335Z,991.94
2018-05-10T03:19:14.328Z,991.97
2018-05-10T03:20:14.321Z,991.97
2018-05-10T03:21:14.315Z,992.00
2018-05-10T03:22:14.308Z,992.03
2018-05-10T03:23:14.300Z,992.02
2018-05-10T03:24:14.294Z,992.02
2018-05-10T03:25:14.288Z,992.06
2018-05-10T03:26:14.281Z,992.03
2018-05-10T03:27:14.274Z,992.07
2018-05-10T03:28:14.267Z,992.04
2018-05-10T03:29:14.263Z,992.06
2018-05-10T03:30:14.268Z,992.11
2018-05-10T03:31:14.247Z,992.07
2018-05-10T03:32:14.241Z,992.03
2018-05-10T03:33:14.244Z,992.09
2018-05-10T03:34:14.227Z,992.05
2018-05-10T03:35:14.221Z,992.08
2018-05-10T03:36:14.213Z,992.02
2018-05-10T03:37:14.208Z,991.95
2018-05-10T03:38:14.203Z,991.97
2018-05-10T03:39:14.195Z,991.96
2018-05-10T03:40:14.187Z,991.97
2018-05-10T03:41:14.181Z,991.97
2018-05-10T03:42:14.175Z,991.98
2018-05-10T03:43:14.166Z,991.93
2018-05-10T03:44:14.160Z,991.91
2018-05-10T03:45:14.153Z,991.90
2018-05-10T03:46:14.147Z,991.93
2018-05-10T03:47:14.140Z,991.94
2018-05-10T03:48:14.133Z,991.97
2018-05-10T03:49:14.127Z,992.04
2018-05-10T03:50:14.120Z,992.06
2018-05-10T03:51:14.117Z,992.14
2018-05-10T03:52:14.106Z,992.18
2018-05-10T03:53:14.103Z,992.23
2018-05-10T03:54:14.093Z,992.25
2018-05-10T03:55:14.085Z,992.24
2018-05-10T03:56:14.079Z,992.22
2018-05-10T03:57:14.072Z,992.27
2018-05-10T03:58:14.066Z,992.26
2018-05-10T03:59:14.058Z,992.25
2018-05-10T04:00:14.052Z,992.26
2018-05-10T04:01:14.045Z,992.32
2018-05-10T04:02:14.039Z,992.29
2018-05-10T04:03:14.031Z,992.28
2018-05-10T04:04:14.025Z,992.30
2018-05-10T04:05:14.018Z,992.24
2018-05-10T04:06:14.012Z,992.27
2018-05-10T04:07:14.004Z,992.28
2018-05-10T04:08:14.000Z,992.31
2018-05-10T04:09:13.991Z,992.30
2018-05-10T04:10:13.984Z,992.35
2018-05-10T04:11:13.977Z,992.42
2018-05-10T04:12:13.970Z,992.39
2018-05-10T04:13:13.964Z,992.40
2018-05-10T04:14:13.958Z,992.41
2018-05-10T04:15:13.953Z,992.42
2018-05-10T04:16:13.948Z,992.43
2018-05-10T04:17:13.942Z,992.42
2018-05-10T04:18:13.931Z,992.40
2018-05-10T04:19:13.929Z,992.39
2018-05-10T04:20:13.917Z,992.39
2018-05-10T04:21:13.913Z,992.43
2018-05-10T04:22:13.910Z,992.44
2018-05-10T04:23:13.901Z,992.44
2018-05-10T04:24:13.891Z,992.46
2018-05-10T04:25:13.885Z,992.47
2018-05-10T04:26:13.887Z,992.49
2018-05-10T04:27:13.871Z,992.50
2018-05-10T04:28:13.865Z,992.51
2018-05-10T04:29:13.858Z,992.53
2018-05-10T04:30:13.852Z,992.54
2018-05-10T04:31:13.844Z,992.60
2018-05-10T04:32:13.838Z,992.56
2018-05-10T04:33:13.833Z,992.54
2018-05-10T04:34:13.825Z,992.55
2018-05-10T04:35:13.820Z,992.52
2018-05-10T04:36:13.811Z,992.48
2018-05-10T04:37:13.804Z,992.46
2018-05-10T04:38:13.798Z,992.38
2018-05-10T04:39:13.791Z,992.41
2018-05-10T04:40:13.784Z,992.39
2018-05-10T04:41:13.777Z,992.38
2018-05-10T04:42:13.855Z,992.37
2018-05-10T04:43:13.764Z,992.34
2018-05-10T04:44:13.758Z,992.38
2018-05-10T04:45:13.751Z,992.41
2018-05-10T04:46:13.744Z,992.41
2018-05-10T04:47:13.739Z,992.42
2018-05-10T04:48:13.730Z,992.40
2018-05-10T04:49:13.724Z,992.44
2018-05-10T04:50:13.722Z,992.52
2018-05-10T04:51:13.710Z,992.50
2018-05-10T04:52:13.703Z,992.55
2018-05-10T04:53:13.699Z,992.56
2018-05-10T04:54:13.695Z,992.57
2018-05-10T04:55:13.684Z,992.62
2018-05-10T04:56:13.747Z,992.65
2018-05-10T04:57:13.670Z,992.62
2018-05-10T04:58:13.663Z,992.63
2018-05-10T04:59:13.656Z,992.67
2018-05-10T05:00:13.650Z,992.69
2018-05-10T05:01:13.644Z,992.67
2018-05-10T05:02:13.636Z,992.69
2018-05-10T05:03:13.629Z,992.73
2018-05-10T05:04:13.624Z,992.74
2018-05-10T05:05:13.616Z,992.71
2018-05-10T05:06:13.610Z,992.73
2018-05-10T05:07:13.603Z,992.76
2018-05-10T05:08:13.609Z,992.75
2018-05-10T05:09:13.590Z,992.77
2018-05-10T05:10:13.583Z,992.77
2018-05-10T05:11:13.576Z,992.81
2018-05-10T05:12:13.569Z,992.81
2018-05-10T05:13:13.563Z,992.78
2018-05-10T05:14:13.556Z,992.75
2018-05-10T05:15:13.552Z,992.77
2018-05-10T05:16:13.541Z,992.75
2018-05-10T05:17:13.535Z,992.77
2018-05-10T05:18:13.530Z,992.83
2018-05-10T05:19:13.521Z,992.87
2018-05-10T05:20:13.514Z,992.86
2018-05-10T05:21:13.508Z,992.95
2018-05-10T05:22:13.501Z,992.90
2018-05-10T05:23:13.493Z,992.95
2018-05-10T05:24:13.487Z,993.01
2018-05-10T05:25:13.480Z,993.03
2018-05-10T05:26:13.474Z,993.02
2018-05-10T05:27:13.465Z,993.00
2018-05-10T05:28:13.460Z,993.03
2018-05-10T05:29:13.456Z,993.06
2018-05-10T05:30:13.446Z,992.99
2018-05-10T05:31:13.438Z,993.00
2018-05-10T05:32:13.434Z,993.01
2018-05-10T05:33:13.426Z,993.00
2018-05-10T05:34:13.419Z,993.01
2018-05-10T05:35:13.412Z,993.00
2018-05-10T05:36:13.405Z,993.00
2018-05-10T05:37:13.399Z,993.03
2018-05-10T05:38:13.393Z,993.05
2018-05-10T05:39:13.385Z,993.04
2018-05-10T05:40:13.379Z,993.05
2018-05-10T05:41:13.422Z,993.02
2018-05-10T05:42:13.366Z,993.06
2018-05-10T05:43:13.454Z,993.04
2018-05-10T05:44:13.352Z,993.06
2018-05-10T05:45:13.346Z,993.11
2018-05-10T05:46:13.340Z,993.09
2018-05-10T05:47:13.336Z,993.09
2018-05-10T05:48:13.325Z,993.09
2018-05-10T05:49:13.319Z,993.14
2018-05-10T05:50:13.313Z,993.11
2018-05-10T05:51:13.344Z,993.10
2018-05-10T05:52:13.299Z,993.14
2018-05-10T05:53:13.293Z,993.14
2018-05-10T05:54:13.286Z,993.14
2018-05-10T05:55:13.279Z,993.18
2018-05-10T05:56:13.272Z,993.18
2018-05-10T05:57:13.266Z,993.19
2018-05-10T05:58:13.260Z,993.21
2018-05-10T05:59:13.257Z,993.25
2018-05-10T06:00:13.245Z,993.23
2018-05-10T06:01:13.243Z,993.24
2018-05-10T06:02:13.232Z,993.27
2018-05-10T06:03:13.225Z,993.26
2018-05-10T06:04:13.219Z,993.27
2018-05-10T06:05:13.213Z,993.30
2018-05-10T06:06:13.207Z,993.28
2018-05-10T06:07:13.201Z,993.29
2018-05-10T06:08:13.192Z,993.33
2018-05-10T06:09:13.186Z,993.31
2018-05-10T06:10:13.180Z,993.32
2018-05-10T06:11:13.174Z,993.30
2018-05-10T06:12:13.167Z,993.30
2018-05-10T06:13:13.163Z,993.28
2018-05-10T06:14:13.155Z,993.34
2018-05-10T06:15:13.148Z,993.27
2018-05-10T06:16:13.148Z,993.28
2018-05-10T06:17:13.136Z,993.29
2018-05-10T06:18:13.131Z,993.36
2018-05-10T06:19:13.123Z,993.33
2018-05-10T06:20:13.118Z,993.32
2018-05-10T06:21:13.112Z,993.36
2018-05-10T06:22:13.106Z,993.38
2018-05-10T06:23:13.099Z,993.39
2018-05-10T06:24:13.093Z,993.37
2018-05-10T06:25:13.229Z,993.43
2018-05-10T06:26:13.082Z,993.39
2018-05-10T06:27:13.074Z,993.43
2018-05-10T06:28:13.069Z,993.41
2018-05-10T06:29:13.063Z,993.40
2018-05-10T06:30:13.057Z,993.44
2018-05-10T06:31:13.052Z,993.42
2018-05-10T06:32:13.044Z,993.40
2018-05-10T06:33:13.038Z,993.39
2018-05-10T06:34:13.031Z,993.39
2018-05-10T06:35:13.025Z,993.42
2018-05-10T06:36:13.019Z,993.39
2018-05-10T06:37:13.013Z,993.37
2018-05-10T06:38:13.007Z,993.35
2018-05-10T06:39:13.000Z,993.44
2018-05-10T06:40:12.993Z,993.38
2018-05-10T06:41:12.988Z,993.35
2018-05-10T06:42:12.981Z,993.38
2018-05-10T06:43:12.974Z,993.41
2018-05-10T06:44:12.968Z,993.41
2018-05-10T06:45:12.963Z,993.42
2018-05-10T06:46:12.957Z,993.45
2018-05-10T06:47:13.045Z,993.44
2018-05-10T06:48:12.946Z,993.50
2018-05-10T06:49:12.938Z,993.52
2018-05-10T06:50:12.932Z,993.52
2018-05-10T06:51:12.926Z,993.55
2018-05-10T06:52:12.920Z,993.59
2018-05-10T06:53:12.914Z,993.60
2018-05-10T06:54:12.908Z,993.61
2018-05-10T06:55:12.901Z,993.60
2018-05-10T06:56:12.896Z,993.60
2018-05-10T06:57:12.890Z,993.65
2018-05-10T06:58:12.885Z,993.62
2018-05-10T06:59:12.877Z,993.64
2018-05-10T07:00:12.871Z,993.67
2018-05-10T07:01:12.866Z,993.66
2018-05-10T07:02:12.860Z,993.67
2018-05-10T07:03:12.892Z,993.65
2018-05-10T07:04:12.846Z,993.68
2018-05-10T07:05:12.843Z,993.71
2018-05-10T07:06:12.834Z,993.72
2018-05-10T07:07:12.827Z,993.67
2018-05-10T07:08:12.822Z,993.70
2018-05-10T07:09:12.816Z,993.74
2018-05-10T07:10:12.809Z,993.76
2018-05-10T07:11:12.803Z,993.72
2018-05-10T07:12:12.796Z,993.76
2018-05-10T07:13:12.790Z,993.73
2018-05-10T07:14:12.785Z,993.73
2018-05-10T07:15:12.776Z,993.73
2018-05-10T07:16:12.771Z,993.75
2018-05-10T07:17:12.764Z,993.76
2018-05-10T07:18:12.757Z,993.82
2018-05-10T07:19:12.752Z,993.78
2018-05-10T07:20:12.744Z,993.80
2018-05-10T07:21:12.737Z,993.81
2018-05-10T07:22:12.731Z,993.87
2018-05-10T07:23:12.724Z,993.90
2018-05-10T07:24:12.717Z,993.93
2018-05-10T07:25:12.764Z,993.93
2018-05-10T07:26:12.704Z,993.97
2018-05-10T07:27:12.696Z,993.93
2018-05-10T07:28:12.690Z,993.96
2018-05-10T07:29:12.683Z,994.02
2018-05-10T07:30:12.676Z,994.03
2018-05-10T07:31:12.668Z,994.01
2018-05-10T07:32:12.661Z,994.05
2018-05-10T07:33:12.654Z,994.02
2018-05-10T07:34:12.647Z,994.11
2018-05-10T07:35:12.640Z,994.12
2018-05-10T07:36:12.633Z,994.12
2018-05-10T07:37:12.625Z,994.12
2018-05-10T07:38:12.619Z,994.08
2018-05-10T07:39:12.611Z,994.15
2018-05-10T07:40:12.603Z,994.16
2018-05-10T07:41:12.596Z,994.15
2018-05-10T07:42:12.589Z,994.15
2018-05-10T07:43:12.580Z,994.16
2018-05-10T07:44:12.574Z,994.22
2018-05-10T07:45:12.567Z,994.19
2018-05-10T07:46:12.561Z,994.23
2018-05-10T07:47:12.631Z,994.26
2018-05-10T07:48:12.610Z,994.25
2018-05-10T07:49:12.537Z,994.31
2018-05-10T07:50:12.529Z,994.27
2018-05-10T07:51:12.522Z,994.34
2018-05-10T07:52:12.514Z,994.32
2018-05-10T07:53:12.601Z,994.27
2018-05-10T07:54:12.500Z,994.42
2018-05-10T07:55:12.492Z,994.34
2018-05-10T07:56:12.485Z,994.34
2018-05-10T07:57:12.478Z,994.36
2018-05-10T07:58:12.471Z,994.33
2018-05-10T07:59:12.463Z,994.37
2018-05-10T08:00:12.456Z,994.39
2018-05-10T08:01:12.449Z,994.38
2018-05-10T08:02:12.484Z,994.41
2018-05-10T08:03:12.434Z,994.43
2018-05-10T08:04:12.427Z,994.38
2018-05-10T08:05:12.420Z,994.44
2018-05-10T08:06:12.413Z,994.39
2018-05-10T08:07:12.405Z,994.47
2018-05-10T08:08:12.398Z,994.40
2018-05-10T08:09:12.391Z,994.46
2018-05-10T08:10:12.417Z,994.47
2018-05-10T08:11:12.380Z,994.46
2018-05-10T08:12:12.369Z,994.51
2018-05-10T08:13:12.362Z,994.56
2018-05-10T08:14:12.356Z,994.50
2018-05-10T08:15:12.348Z,994.58
2018-05-10T08:16:12.340Z,994.48
2018-05-10T08:17:12.374Z,994.60
2018-05-10T08:18:12.327Z,994.63
2018-05-10T08:19:12.319Z,994.61
2018-05-10T08:20:12.313Z,994.62
2018-05-10T08:21:12.305Z,994.67
2018-05-10T08:22:12.298Z,994.63
2018-05-10T08:23:12.290Z,994.69
2018-05-10T08:24:12.377Z,994.67
2018-05-10T08:25:12.275Z,994.71
2018-05-10T08:26:12.269Z,994.72
2018-05-10T08:27:12.261Z,994.68
2018-05-10T08:28:12.254Z,994.73
2018-05-10T08:29:12.247Z,994.73
2018-05-10T08:30:12.398Z,994.74
2018-05-10T08:31:12.233Z,994.74
2018-05-10T08:32:12.227Z,994.78
2018-05-10T08:33:12.219Z,994.83
2018-05-10T08:34:12.213Z,994.83
2018-05-10T08:35:12.206Z,994.83
2018-05-10T08:36:12.199Z,994.80
2018-05-10T08:37:12.193Z,994.84
2018-05-10T08:38:12.187Z,994.88
2018-05-10T08:39:12.180Z,994.83
2018-05-10T08:40:12.173Z,994.83
2018-05-10T08:41:12.167Z,994.92
2018-05-10T08:42:12.161Z,994.91
2018-05-10T08:43:12.154Z,994.96
2018-05-10T08:44:12.150Z,994.98
2018-05-10T08:45:12.142Z,994.99
2018-05-10T08:46:12.136Z,994.97
2018-05-10T08:47:12.132Z,995.02
2018-05-10T08:48:12.122Z,995.05
2018-05-10T08:49:12.117Z,995.07
2018-05-10T08:50:12.113Z,995.04
2018-05-10T08:51:12.105Z,995.06
2018-05-10T08:52:12.099Z,995.13
2018-05-10T08:53:12.094Z,995.14
2018-05-10T08:54:12.089Z,995.09
2018-05-10T08:55:12.088Z,995.14
2018-05-10T08:56:12.076Z,995.15
2018-05-10T08:57:12.075Z,995.17
2018-05-10T08:58:12.066Z,995.22
2018-05-10T08:59:12.057Z,995.27
2018-05-10T09:00:12.052Z,995.26
2018-05-10T09:01:12.046Z,995.28
2018-05-10T09:02:12.192Z,995.26
2018-05-10T09:03:12.034Z,995.28
2018-05-10T09:04:12.028Z,995.24
2018-05-10T09:05:12.027Z,995.26
2018-05-10T09:06:12.017Z,995.27
2018-05-10T09:07:12.010Z,995.30
2018-05-10T09:08:12.005Z,995.31
2018-05-10T09:09:11.999Z,995.28
2018-05-10T09:10:11.993Z,995.31
2018-05-10T09:11:11.987Z,995.34
2018-05-10T09:12:11.981Z,995.36
2018-05-10T09:13:11.976Z,995.37
2018-05-10T09:14:11.970Z,995.34
2018-05-10T09:15:11.966Z,995.37
2018-05-10T09:16:11.959Z,995.39
2018-05-10T09:17:11.963Z,995.41
2018-05-10T09:18:11.948Z,995.41
2018-05-10T09:19:11.942Z,995.39
2018-05-10T09:20:11.954Z,995.37
2018-05-10T09:21:11.931Z,995.36
2018-05-10T09:22:11.927Z,995.39
2018-05-10T09:23:11.921Z,995.40
2018-05-10T09:24:11.916Z,995.46
2018-05-10T09:25:11.911Z,995.43
2018-05-10T09:26:11.907Z,995.42
2018-05-10T09:27:11.901Z,995.45
2018-05-10T09:28:11.896Z,995.48
2018-05-10T09:29:11.892Z,995.54
2018-05-10T09:30:11.888Z,995.55
2018-05-10T09:31:11.886Z,995.53
2018-05-10T09:32:11.877Z,995.55
2018-05-10T09:33:11.877Z,995.53
2018-05-10T09:34:11.868Z,995.54
2018-05-10T09:35:11.864Z,995.65
2018-05-10T09:36:11.858Z,995.65
2018-05-10T09:37:11.852Z,995.60
2018-05-10T09:38:11.847Z,995.70
2018-05-10T09:39:11.922Z,995.65
2018-05-10T09:40:11.836Z,995.68
2018-05-10T09:41:11.831Z,995.78
2018-05-10T09:42:11.826Z,995.80
2018-05-10T09:43:11.820Z,995.77
2018-05-10T09:44:11.816Z,995.86
2018-05-10T09:45:11.808Z,995.85
2018-05-10T09:46:11.813Z,995.92
2018-05-10T09:47:11.797Z,995.89
2018-05-10T09:48:11.791Z,995.92
2018-05-10T09:49:11.787Z,995.92
2018-05-10T09:50:11.780Z,995.93
2018-05-10T09:51:11.774Z,995.93
2018-05-10T09:52:11.768Z,995.97
2018-05-10T09:53:11.762Z,995.96
2018-05-10T09:54:11.757Z,996.02
2018-05-10T09:55:11.750Z,995.98
2018-05-10T09:56:11.745Z,996.07
2018-05-10T09:57:11.738Z,996.00
2018-05-10T09:58:11.739Z,996.02
2018-05-10T09:59:11.725Z,996.08
2018-05-10T10:00:11.719Z,996.04
2018-05-10T10:01:11.715Z,996.05
2018-05-10T10:02:11.707Z,996.08
2018-05-10T10:03:11.700Z,996.09
2018-05-10T10:04:11.695Z,996.11
2018-05-10T10:05:11.687Z,996.14
2018-05-10T10:06:11.743Z,996.10
2018-05-10T10:07:11.673Z,996.20
2018-05-10T10:08:11.667Z,996.18
2018-05-10T10:09:11.664Z,996.22
2018-05-10T10:10:11.654Z,996.27
2018-05-10T10:11:11.647Z,996.25
2018-05-10T10:12:11.640Z,996.34
2018-05-10T10:13:11.634Z,996.37
2018-05-10T10:14:11.631Z,996.35
2018-05-10T10:15:11.621Z,996.38
2018-05-10T10:16:11.615Z,996.39
2018-05-10T10:17:11.609Z,996.44
2018-05-10T10:18:11.602Z,996.41
2018-05-10T10:19:11.594Z,996.43
2018-05-10T10:20:11.588Z,996.43
2018-05-10T10:21:11.582Z,996.44
2018-05-10T10:22:11.579Z,996.48
2018-05-10T10:23:11.567Z,996.46
2018-05-10T10:24:11.562Z,996.52
2018-05-10T10:25:11.643Z,996.53
2018-05-10T10:26:11.548Z,996.51
2018-05-10T10:27:11.542Z,996.53
2018-05-10T10:28:11.535Z,996.55
2018-05-10T10:29:11.529Z,996.55
2018-05-10T10:30:11.522Z,996.51
2018-05-10T10:31:11.515Z,996.52
2018-05-10T10:32:11.509Z,996.49
2018-05-10T10:33:11.503Z,996.53
2018-05-10T10:34:11.496Z,996.52
2018-05-10T10:35:11.489Z,996.53
2018-05-10T10:36:11.482Z,996.53
2018-05-10T10:37:11.477Z,996.51
2018-05-10T10:38:11.562Z,996.52
2018-05-10T10:39:11.464Z,996.59
2018-05-10T10:40:11.506Z,996.56
2018-05-10T10:41:11.451Z,996.58
2018-05-10T10:42:11.445Z,996.62
2018-05-10T10:43:11.438Z,996.62
2018-05-10T10:44:11.437Z,996.61
2018-05-10T10:45:11.427Z,996.63
2018-05-10T10:46:11.422Z,996.68
2018-05-10T10:47:11.415Z,996.69
2018-05-10T10:48:11.413Z,996.63
2018-05-10T10:49:11.405Z,996.66
2018-05-10T10:50:11.400Z,996.62
2018-05-10T10:51:11.394Z,996.63
2018-05-10T10:52:11.391Z,996.71
2018-05-10T10:53:11.389Z,996.71
2018-05-10T10:54:11.383Z,996.67
2018-05-10T10:55:11.378Z,996.73
2018-05-10T10:56:11.375Z,996.74
2018-05-10T10:57:11.372Z,996.77
2018-05-10T10:58:11.369Z,996.79
2018-05-10T10:59:11.364Z,996.79
2018-05-10T11:00:11.362Z,996.81
2018-05-10T11:01:11.359Z,996.77
2018-05-10T11:02:11.366Z,996.82
2018-05-10T11:03:11.351Z,996.86
2018-05-10T11:04:11.350Z,996.84
2018-05-10T11:05:11.344Z,996.84
2018-05-10T11:06:11.341Z,996.88
2018-05-10T11:07:11.337Z,996.93
2018-05-10T11:08:11.333Z,996.92
2018-05-10T11:09:11.397Z,996.89
2018-05-10T11:10:11.326Z,996.88
2018-05-10T11:11:11.321Z,996.91
2018-05-10T11:12:11.316Z,996.90
2018-05-10T11:13:11.313Z,996.88
2018-05-10T11:14:11.309Z,996.89
2018-05-10T11:15:11.304Z,996.93
2018-05-10T11:16:11.300Z,996.95
2018-05-10T11:17:11.296Z,996.88
2018-05-10T11:18:11.291Z,996.97
2018-05-10T11:19:11.286Z,996.95
2018-05-10T11:20:11.282Z,996.95
2018-05-10T11:21:11.278Z,996.97
2018-05-10T11:22:11.275Z,997.00
2018-05-10T11:23:11.269Z,997.03
2018-05-10T11:24:11.265Z,997.08
2018-05-10T11:25:11.261Z,997.06
2018-05-10T11:26:11.257Z,997.07
2018-05-10T11:27:11.252Z,997.07
2018-05-10T11:28:11.247Z,997.08
2018-05-10T11:29:11.244Z,997.13
2018-05-10T11:30:11.241Z,997.20
2018-05-10T11:31:11.233Z,997.10
2018-05-10T11:32:11.231Z,997.15
2018-05-10T11:33:11.314Z,997.17
2018-05-10T11:34:11.221Z,997.18
2018-05-10T11:35:11.215Z,997.13
2018-05-10T11:36:11.244Z,997.14
2018-05-10T11:37:11.207Z,997.18
2018-05-10T11:38:11.203Z,997.20
2018-05-10T11:39:11.240Z,997.23
2018-05-10T11:40:11.194Z,997.20
2018-05-10T11:41:11.192Z,997.24
2018-05-10T11:42:11.189Z,997.21
2018-05-10T11:43:11.183Z,997.21
2018-05-10T11:44:11.180Z,997.25
2018-05-10T11:45:11.177Z,997.21
2018-05-10T11:46:11.175Z,997.24
2018-05-10T11:47:11.174Z,997.24
2018-05-10T11:48:11.167Z,997.26
2018-05-10T11:49:11.167Z,997.28
2018-05-10T11:50:11.160Z,997.25
2018-05-10T11:51:11.157Z,997.26
2018-05-10T11:52:11.152Z,997.29
2018-05-10T11:53:11.152Z,997.27
2018-05-10T11:54:11.145Z,997.29
2018-05-10T11:55:11.143Z,997.27
2018-05-10T11:56:11.137Z,997.29
2018-05-10T11:57:11.135Z,997.27
2018-05-10T11:58:11.130Z,997.26
2018-05-10T11:59:11.125Z,997.28
2018-05-10T12:00:11.121Z,997.32
2018-05-10T12:01:11.117Z,997.36
2018-05-10T12:02:11.113Z,997.31
2018-05-10T12:03:11.108Z,997.39
2018-05-10T12:04:11.105Z,997.41
2018-05-10T12:05:11.101Z,997.44
2018-05-10T12:06:11.135Z,997.42
2018-05-10T12:07:11.091Z,997.39
2018-05-10T12:08:11.087Z,997.46
2018-05-10T12:09:11.083Z,997.45
2018-05-10T12:12:15.224Z,997.45
2018-05-10T12:13:15.222Z,997.50
2018-05-10T12:14:15.214Z,997.51
2018-05-10T12:15:15.210Z,997.54
2018-05-10T12:16:15.205Z,997.55
2018-05-10T12:17:15.199Z,997.53
2018-05-10T12:18:15.195Z,997.53
2018-05-10T12:19:15.235Z,997.52
2018-05-10T12:20:15.187Z,997.56
2018-05-10T12:21:15.182Z,997.58
2018-05-10T12:22:15.178Z,997.60
2018-05-10T12:23:15.174Z,997.58
2018-05-10T12:24:15.171Z,997.64
2018-05-10T12:25:15.172Z,997.63
2018-05-10T12:26:15.164Z,997.59
2018-05-10T12:27:15.168Z,997.72
2018-05-10T12:28:15.163Z,997.66
2018-05-10T12:29:15.156Z,997.69
2018-05-10T12:30:15.154Z,997.57